sensor_id;sensor_type;location;lat;lon;timestamp;P1;durP1;ratioP1;P2;durP2;ratioP2
15120;SDS011;7661;48.904;9.414;2022-09-03T00:00:25;4.20;;;1.60;;
15120;SDS011;7661;48.904;9.414;2022-09-03T00:02:52;3.70;;;1.60;;
15120;SDS011;7661;48.904;9.414;2022-09-03T00:05:28;3.47;;;1.30;;
15120;SDS011;7661;48.904;9.414;2022-09-03T00:08:01;3.33;;;1.40;;
15120;SDS011;7661;48.904;9.414;2022-09-03T00:10:35;4.83;;;1.60;;
15120;SDS011;7661;48.904;9.414;2022-09-03T00:13:09;3.77;;;1.30;;
15120;SDS011;7661;48.904;9.414;2022-09-03T00:15:42;6.27;;;1.50;;
15120;SDS011;7661;48.904;9.414;2022-09-03T00:18:10;3.47;;;1.37;;
15120;SDS011;7661;48.904;9.414;2022-09-03T00:20:43;4.07;;;1.67;;
15120;SDS011;7661;48.904;9.414;2022-09-03T00:23:15;4.90;;;1.80;;
15120;SDS011;7661;48.904;9.414;2022-09-03T00:25:46;5.10;;;1.60;;
15120;SDS011;7661;48.904;9.414;2022-09-03T00:28:18;5.20;;;1.30;;
15120;SDS011;7661;48.904;9.414;2022-09-03T00:30:50;7.10;;;1.70;;
15120;SDS011;7661;48.904;9.414;2022-09-03T00:33:23;5.70;;;1.60;;
15120;SDS011;7661;48.904;9.414;2022-09-03T00:36:01;6.97;;;1.60;;
15120;SDS011;7661;48.904;9.414;2022-09-03T00:38:33;4.07;;;1.80;;
15120;SDS011;7661;48.904;9.414;2022-09-03T00:41:03;3.60;;;1.37;;
15120;SDS011;7661;48.904;9.414;2022-09-03T00:43:40;3.40;;;1.40;;
15120;SDS011;7661;48.904;9.414;2022-09-03T00:46:18;4.50;;;1.50;;
15120;SDS011;7661;48.904;9.414;2022-09-03T00:49:04;5.70;;;1.80;;
15120;SDS011;7661;48.904;9.414;2022-09-03T00:51:56;3.93;;;1.20;;
15120;SDS011;7661;48.904;9.414;2022-09-03T00:54:31;3.77;;;1.50;;
15120;SDS011;7661;48.904;9.414;2022-09-03T00:57:10;13.63;;;1.77;;
15120;SDS011;7661;48.904;9.414;2022-09-03T00:59:51;3.93;;;1.57;;
15120;SDS011;7661;48.904;9.414;2022-09-03T01:02:29;3.03;;;1.30;;
15120;SDS011;7661;48.904;9.414;2022-09-03T01:05:14;4.17;;;1.57;;
15120;SDS011;7661;48.904;9.414;2022-09-03T01:07:51;5.57;;;1.70;;
15120;SDS011;7661;48.904;9.414;2022-09-03T01:10:26;4.73;;;1.47;;
15120;SDS011;7661;48.904;9.414;2022-09-03T01:13:04;2.87;;;1.50;;
15120;SDS011;7661;48.904;9.414;2022-09-03T01:15:39;4.53;;;1.90;;
15120;SDS011;7661;48.904;9.414;2022-09-03T01:18:20;4.37;;;1.80;;
15120;SDS011;7661;48.904;9.414;2022-09-03T01:20:58;3.10;;;1.37;;
15120;SDS011;7661;48.904;9.414;2022-09-03T01:23:46;5.20;;;1.70;;
15120;SDS011;7661;48.904;9.414;2022-09-03T01:26:40;3.87;;;1.70;;
15120;SDS011;7661;48.904;9.414;2022-09-03T01:29:23;4.80;;;1.60;;
15120;SDS011;7661;48.904;9.414;2022-09-03T01:31:58;3.33;;;1.70;;
15120;SDS011;7661;48.904;9.414;2022-09-03T01:34:35;3.50;;;1.30;;
15120;SDS011;7661;48.904;9.414;2022-09-03T01:37:13;4.23;;;1.80;;
15120;SDS011;7661;48.904;9.414;2022-09-03T01:39:48;3.27;;;1.50;;
15120;SDS011;7661;48.904;9.414;2022-09-03T01:42:29;2.97;;;1.50;;
15120;SDS011;7661;48.904;9.414;2022-09-03T01:45:09;2.83;;;1.37;;
15120;SDS011;7661;48.904;9.414;2022-09-03T01:47:59;4.90;;;1.60;;
15120;SDS011;7661;48.904;9.414;2022-09-03T01:50:40;7.77;;;1.60;;
15120;SDS011;7661;48.904;9.414;2022-09-03T01:53:14;3.13;;;1.43;;
15120;SDS011;7661;48.904;9.414;2022-09-03T01:55:54;4.37;;;1.53;;
15120;SDS011;7661;48.904;9.414;2022-09-03T01:58:34;3.50;;;1.20;;
15120;SDS011;7661;48.904;9.414;2022-09-03T02:01:10;5.00;;;1.70;;
15120;SDS011;7661;48.904;9.414;2022-09-03T02:03:43;6.13;;;1.33;;
15120;SDS011;7661;48.904;9.414;2022-09-03T02:06:12;4.77;;;1.63;;
15120;SDS011;7661;48.904;9.414;2022-09-03T02:08:39;3.20;;;1.60;;
15120;SDS011;7661;48.904;9.414;2022-09-03T02:11:07;3.70;;;1.57;;
15120;SDS011;7661;48.904;9.414;2022-09-03T02:13:37;2.90;;;1.33;;
15120;SDS011;7661;48.904;9.414;2022-09-03T02:16:08;3.70;;;1.60;;
15120;SDS011;7661;48.904;9.414;2022-09-03T02:18:40;4.60;;;1.90;;
15120;SDS011;7661;48.904;9.414;2022-09-03T02:21:10;4.00;;;1.40;;
15120;SDS011;7661;48.904;9.414;2022-09-03T02:23:39;3.53;;;1.43;;
15120;SDS011;7661;48.904;9.414;2022-09-03T02:26:07;2.67;;;1.30;;
15120;SDS011;7661;48.904;9.414;2022-09-03T02:28:36;3.33;;;1.53;;
15120;SDS011;7661;48.904;9.414;2022-09-03T02:31:03;5.40;;;1.70;;
15120;SDS011;7661;48.904;9.414;2022-09-03T02:33:34;5.13;;;1.80;;
15120;SDS011;7661;48.904;9.414;2022-09-03T02:36:03;7.70;;;1.80;;
15120;SDS011;7661;48.904;9.414;2022-09-03T02:38:32;2.63;;;1.40;;
15120;SDS011;7661;48.904;9.414;2022-09-03T02:40:59;5.10;;;2.00;;
15120;SDS011;7661;48.904;9.414;2022-09-03T02:43:37;3.33;;;1.27;;
15120;SDS011;7661;48.904;9.414;2022-09-03T02:46:08;2.90;;;1.37;;
15120;SDS011;7661;48.904;9.414;2022-09-03T02:48:43;6.23;;;1.70;;
15120;SDS011;7661;48.904;9.414;2022-09-03T02:51:10;5.30;;;2.17;;
15120;SDS011;7661;48.904;9.414;2022-09-03T02:53:37;4.53;;;1.60;;
15120;SDS011;7661;48.904;9.414;2022-09-03T02:56:04;4.30;;;1.43;;
15120;SDS011;7661;48.904;9.414;2022-09-03T02:58:31;7.90;;;1.60;;
15120;SDS011;7661;48.904;9.414;2022-09-03T03:00:59;5.50;;;1.80;;
15120;SDS011;7661;48.904;9.414;2022-09-03T03:03:26;3.70;;;1.70;;
15120;SDS011;7661;48.904;9.414;2022-09-03T03:05:55;13.60;;;1.50;;
15120;SDS011;7661;48.904;9.414;2022-09-03T03:08:24;7.17;;;1.90;;
15120;SDS011;7661;48.904;9.414;2022-09-03T03:10:53;10.50;;;1.70;;
15120;SDS011;7661;48.904;9.414;2022-09-03T03:13:23;3.17;;;1.53;;
15120;SDS011;7661;48.904;9.414;2022-09-03T03:15:50;4.13;;;1.40;;
15120;SDS011;7661;48.904;9.414;2022-09-03T03:18:20;4.10;;;1.80;;
15120;SDS011;7661;48.904;9.414;2022-09-03T03:20:48;7.83;;;2.00;;
15120;SDS011;7661;48.904;9.414;2022-09-03T03:23:16;3.27;;;1.70;;
15120;SDS011;7661;48.904;9.414;2022-09-03T03:25:43;4.67;;;1.83;;
15120;SDS011;7661;48.904;9.414;2022-09-03T03:28:10;3.30;;;1.67;;
15120;SDS011;7661;48.904;9.414;2022-09-03T03:30:39;3.73;;;1.50;;
15120;SDS011;7661;48.904;9.414;2022-09-03T03:33:06;4.40;;;1.40;;
15120;SDS011;7661;48.904;9.414;2022-09-03T03:35:34;3.23;;;1.70;;
15120;SDS011;7661;48.904;9.414;2022-09-03T03:38:01;4.67;;;1.70;;
15120;SDS011;7661;48.904;9.414;2022-09-03T03:40:30;3.00;;;1.40;;
15120;SDS011;7661;48.904;9.414;2022-09-03T03:42:58;3.50;;;1.60;;
15120;SDS011;7661;48.904;9.414;2022-09-03T03:45:25;4.27;;;1.87;;
15120;SDS011;7661;48.904;9.414;2022-09-03T03:47:55;4.23;;;1.63;;
15120;SDS011;7661;48.904;9.414;2022-09-03T03:50:23;4.40;;;1.73;;
15120;SDS011;7661;48.904;9.414;2022-09-03T03:52:50;3.77;;;1.47;;
15120;SDS011;7661;48.904;9.414;2022-09-03T03:55:17;3.40;;;1.80;;
15120;SDS011;7661;48.904;9.414;2022-09-03T03:57:45;5.63;;;1.90;;
15120;SDS011;7661;48.904;9.414;2022-09-03T04:00:12;4.70;;;2.17;;
15120;SDS011;7661;48.904;9.414;2022-09-03T04:02:40;4.53;;;2.00;;
15120;SDS011;7661;48.904;9.414;2022-09-03T04:05:07;3.97;;;1.73;;
15120;SDS011;7661;48.904;9.414;2022-09-03T04:07:34;3.50;;;1.70;;
15120;SDS011;7661;48.904;9.414;2022-09-03T04:10:01;4.17;;;1.80;;
15120;SDS011;7661;48.904;9.414;2022-09-03T04:12:28;8.00;;;1.93;;
15120;SDS011;7661;48.904;9.414;2022-09-03T04:14:57;6.57;;;1.70;;
15120;SDS011;7661;48.904;9.414;2022-09-03T04:17:23;4.60;;;2.23;;
15120;SDS011;7661;48.904;9.414;2022-09-03T04:19:50;3.77;;;1.60;;
15120;SDS011;7661;48.904;9.414;2022-09-03T04:22:17;4.77;;;1.50;;
15120;SDS011;7661;48.904;9.414;2022-09-03T04:24:44;11.03;;;2.07;;
15120;SDS011;7661;48.904;9.414;2022-09-03T04:27:11;4.63;;;1.93;;
15120;SDS011;7661;48.904;9.414;2022-09-03T04:29:38;3.60;;;1.80;;
15120;SDS011;7661;48.904;9.414;2022-09-03T04:32:06;4.20;;;1.70;;
15120;SDS011;7661;48.904;9.414;2022-09-03T04:34:51;6.50;;;2.00;;
15120;SDS011;7661;48.904;9.414;2022-09-03T04:37:17;3.27;;;1.63;;
15120;SDS011;7661;48.904;9.414;2022-09-03T04:39:44;7.20;;;1.80;;
15120;SDS011;7661;48.904;9.414;2022-09-03T04:42:11;5.10;;;1.80;;
15120;SDS011;7661;48.904;9.414;2022-09-03T04:44:38;5.03;;;1.80;;
15120;SDS011;7661;48.904;9.414;2022-09-03T04:47:06;6.50;;;2.20;;
15120;SDS011;7661;48.904;9.414;2022-09-03T04:49:33;7.93;;;2.10;;
15120;SDS011;7661;48.904;9.414;2022-09-03T04:52:00;8.00;;;2.10;;
15120;SDS011;7661;48.904;9.414;2022-09-03T04:54:28;8.03;;;2.00;;
15120;SDS011;7661;48.904;9.414;2022-09-03T04:56:54;3.43;;;1.80;;
15120;SDS011;7661;48.904;9.414;2022-09-03T04:59:21;4.43;;;2.00;;
15120;SDS011;7661;48.904;9.414;2022-09-03T05:01:48;8.30;;;2.57;;
15120;SDS011;7661;48.904;9.414;2022-09-03T05:04:17;7.93;;;1.73;;
15120;SDS011;7661;48.904;9.414;2022-09-03T05:06:44;6.20;;;2.20;;
15120;SDS011;7661;48.904;9.414;2022-09-03T05:09:11;5.93;;;1.70;;
15120;SDS011;7661;48.904;9.414;2022-09-03T05:11:38;4.30;;;1.73;;
15120;SDS011;7661;48.904;9.414;2022-09-03T05:14:05;5.67;;;2.07;;
15120;SDS011;7661;48.904;9.414;2022-09-03T05:16:35;3.80;;;2.00;;
15120;SDS011;7661;48.904;9.414;2022-09-03T05:19:02;3.33;;;1.80;;
15120;SDS011;7661;48.904;9.414;2022-09-03T05:21:33;4.40;;;1.90;;
15120;SDS011;7661;48.904;9.414;2022-09-03T05:24:01;4.10;;;2.10;;
15120;SDS011;7661;48.904;9.414;2022-09-03T05:26:29;4.40;;;2.03;;
15120;SDS011;7661;48.904;9.414;2022-09-03T05:28:59;3.80;;;2.10;;
15120;SDS011;7661;48.904;9.414;2022-09-03T05:31:29;6.33;;;2.10;;
15120;SDS011;7661;48.904;9.414;2022-09-03T05:33:56;11.30;;;2.30;;
15120;SDS011;7661;48.904;9.414;2022-09-03T05:36:26;4.47;;;1.90;;
15120;SDS011;7661;48.904;9.414;2022-09-03T05:38:56;3.67;;;1.97;;
15120;SDS011;7661;48.904;9.414;2022-09-03T05:41:24;13.10;;;2.10;;
15120;SDS011;7661;48.904;9.414;2022-09-03T05:43:52;3.83;;;2.23;;
15120;SDS011;7661;48.904;9.414;2022-09-03T05:46:20;5.00;;;1.90;;
15120;SDS011;7661;48.904;9.414;2022-09-03T05:48:50;5.30;;;2.17;;
15120;SDS011;7661;48.904;9.414;2022-09-03T05:51:18;6.33;;;2.20;;
15120;SDS011;7661;48.904;9.414;2022-09-03T05:53:45;4.77;;;1.90;;
15120;SDS011;7661;48.904;9.414;2022-09-03T05:56:15;8.93;;;2.10;;
15120;SDS011;7661;48.904;9.414;2022-09-03T05:58:44;5.30;;;2.00;;
15120;SDS011;7661;48.904;9.414;2022-09-03T06:01:12;3.33;;;2.00;;
15120;SDS011;7661;48.904;9.414;2022-09-03T06:03:41;7.67;;;1.97;;
15120;SDS011;7661;48.904;9.414;2022-09-03T06:06:09;4.03;;;2.03;;
15120;SDS011;7661;48.904;9.414;2022-09-03T06:08:38;9.50;;;1.87;;
15120;SDS011;7661;48.904;9.414;2022-09-03T06:11:05;6.20;;;2.40;;
15120;SDS011;7661;48.904;9.414;2022-09-03T06:13:34;7.70;;;2.30;;
15120;SDS011;7661;48.904;9.414;2022-09-03T06:16:02;4.90;;;2.10;;
15120;SDS011;7661;48.904;9.414;2022-09-03T06:18:30;3.27;;;1.80;;
15120;SDS011;7661;48.904;9.414;2022-09-03T06:20:58;5.83;;;2.13;;
15120;SDS011;7661;48.904;9.414;2022-09-03T06:23:27;4.20;;;1.70;;
15120;SDS011;7661;48.904;9.414;2022-09-03T06:26:01;4.20;;;2.00;;
15120;SDS011;7661;48.904;9.414;2022-09-03T06:28:29;4.73;;;2.10;;
15120;SDS011;7661;48.904;9.414;2022-09-03T06:30:58;3.80;;;2.37;;
15120;SDS011;7661;48.904;9.414;2022-09-03T06:33:25;5.50;;;2.50;;
15120;SDS011;7661;48.904;9.414;2022-09-03T06:35:55;5.60;;;2.47;;
15120;SDS011;7661;48.904;9.414;2022-09-03T06:38:23;4.90;;;2.20;;
15120;SDS011;7661;48.904;9.414;2022-09-03T06:40:52;5.07;;;2.37;;
15120;SDS011;7661;48.904;9.414;2022-09-03T06:43:20;7.30;;;2.83;;
15120;SDS011;7661;48.904;9.414;2022-09-03T06:45:54;4.83;;;2.53;;
15120;SDS011;7661;48.904;9.414;2022-09-03T06:48:23;7.37;;;2.50;;
15120;SDS011;7661;48.904;9.414;2022-09-03T06:50:54;5.60;;;2.20;;
15120;SDS011;7661;48.904;9.414;2022-09-03T06:53:22;4.20;;;2.27;;
15120;SDS011;7661;48.904;9.414;2022-09-03T06:55:53;4.70;;;2.10;;
15120;SDS011;7661;48.904;9.414;2022-09-03T06:58:21;4.83;;;2.10;;
15120;SDS011;7661;48.904;9.414;2022-09-03T07:00:48;4.70;;;2.40;;
15120;SDS011;7661;48.904;9.414;2022-09-03T07:03:17;11.80;;;2.40;;
15120;SDS011;7661;48.904;9.414;2022-09-03T07:05:45;6.77;;;2.60;;
15120;SDS011;7661;48.904;9.414;2022-09-03T07:08:12;4.27;;;2.00;;
15120;SDS011;7661;48.904;9.414;2022-09-03T07:10:40;5.73;;;2.50;;
15120;SDS011;7661;48.904;9.414;2022-09-03T07:13:12;9.00;;;2.60;;
15120;SDS011;7661;48.904;9.414;2022-09-03T07:15:39;6.47;;;2.10;;
15120;SDS011;7661;48.904;9.414;2022-09-03T07:18:06;4.37;;;2.20;;
15120;SDS011;7661;48.904;9.414;2022-09-03T07:20:33;4.50;;;2.20;;
15120;SDS011;7661;48.904;9.414;2022-09-03T07:23:01;4.30;;;1.80;;
15120;SDS011;7661;48.904;9.414;2022-09-03T07:25:28;9.53;;;2.27;;
15120;SDS011;7661;48.904;9.414;2022-09-03T07:27:56;5.80;;;2.20;;
15120;SDS011;7661;48.904;9.414;2022-09-03T07:30:23;5.10;;;2.37;;
15120;SDS011;7661;48.904;9.414;2022-09-03T07:32:50;4.20;;;2.10;;
15120;SDS011;7661;48.904;9.414;2022-09-03T07:35:18;5.50;;;2.47;;
15120;SDS011;7661;48.904;9.414;2022-09-03T07:37:45;9.27;;;2.23;;
15120;SDS011;7661;48.904;9.414;2022-09-03T07:40:13;3.80;;;2.70;;
15120;SDS011;7661;48.904;9.414;2022-09-03T07:42:43;5.07;;;2.73;;
15120;SDS011;7661;48.904;9.414;2022-09-03T07:45:12;3.70;;;2.00;;
15120;SDS011;7661;48.904;9.414;2022-09-03T07:47:44;4.63;;;2.50;;
15120;SDS011;7661;48.904;9.414;2022-09-03T07:50:12;5.43;;;2.27;;
15120;SDS011;7661;48.904;9.414;2022-09-03T07:52:40;6.43;;;2.33;;
15120;SDS011;7661;48.904;9.414;2022-09-03T07:55:07;5.07;;;2.23;;
15120;SDS011;7661;48.904;9.414;2022-09-03T07:57:36;4.70;;;2.37;;
15120;SDS011;7661;48.904;9.414;2022-09-03T08:00:03;6.30;;;2.57;;
15120;SDS011;7661;48.904;9.414;2022-09-03T08:02:31;3.40;;;2.13;;
15120;SDS011;7661;48.904;9.414;2022-09-03T08:04:58;3.20;;;2.27;;
15120;SDS011;7661;48.904;9.414;2022-09-03T08:07:27;8.00;;;2.50;;
15120;SDS011;7661;48.904;9.414;2022-09-03T08:09:54;3.50;;;2.17;;
15120;SDS011;7661;48.904;9.414;2022-09-03T08:12:21;6.80;;;2.27;;
15120;SDS011;7661;48.904;9.414;2022-09-03T08:14:49;5.20;;;1.90;;
15120;SDS011;7661;48.904;9.414;2022-09-03T08:17:16;6.67;;;2.80;;
15120;SDS011;7661;48.904;9.414;2022-09-03T08:19:43;5.20;;;2.70;;
15120;SDS011;7661;48.904;9.414;2022-09-03T08:22:11;7.50;;;3.20;;
15120;SDS011;7661;48.904;9.414;2022-09-03T08:24:38;14.70;;;3.00;;
15120;SDS011;7661;48.904;9.414;2022-09-03T08:27:06;5.57;;;2.67;;
15120;SDS011;7661;48.904;9.414;2022-09-03T08:29:33;5.53;;;2.90;;
15120;SDS011;7661;48.904;9.414;2022-09-03T08:32:02;5.67;;;2.63;;
15120;SDS011;7661;48.904;9.414;2022-09-03T08:34:29;7.20;;;3.03;;
15120;SDS011;7661;48.904;9.414;2022-09-03T08:36:56;5.13;;;2.60;;
15120;SDS011;7661;48.904;9.414;2022-09-03T08:39:25;6.47;;;2.70;;
15120;SDS011;7661;48.904;9.414;2022-09-03T08:44:47;6.50;;;2.53;;
15120;SDS011;7661;48.904;9.414;2022-09-03T08:47:20;4.33;;;2.33;;
15120;SDS011;7661;48.904;9.414;2022-09-03T08:49:51;6.13;;;3.10;;
15120;SDS011;7661;48.904;9.414;2022-09-03T08:52:24;4.20;;;2.40;;
15120;SDS011;7661;48.904;9.414;2022-09-03T08:54:57;10.23;;;3.00;;
15120;SDS011;7661;48.904;9.414;2022-09-03T08:57:35;4.57;;;2.47;;
15120;SDS011;7661;48.904;9.414;2022-09-03T09:00:08;5.37;;;2.30;;
15120;SDS011;7661;48.904;9.414;2022-09-03T09:02:40;4.70;;;2.70;;
15120;SDS011;7661;48.904;9.414;2022-09-03T09:05:16;6.80;;;2.70;;
15120;SDS011;7661;48.904;9.414;2022-09-03T09:07:46;5.77;;;2.67;;
15120;SDS011;7661;48.904;9.414;2022-09-03T09:10:19;6.03;;;2.50;;
15120;SDS011;7661;48.904;9.414;2022-09-03T09:12:55;16.77;;;3.13;;
15120;SDS011;7661;48.904;9.414;2022-09-03T09:15:32;9.10;;;4.10;;
15120;SDS011;7661;48.904;9.414;2022-09-03T09:18:09;7.10;;;3.10;;
15120;SDS011;7661;48.904;9.414;2022-09-03T09:20:44;5.33;;;3.10;;
15120;SDS011;7661;48.904;9.414;2022-09-03T09:23:14;5.03;;;2.60;;
15120;SDS011;7661;48.904;9.414;2022-09-03T09:25:46;8.40;;;2.70;;
15120;SDS011;7661;48.904;9.414;2022-09-03T09:28:16;11.80;;;2.50;;
15120;SDS011;7661;48.904;9.414;2022-09-03T09:30:45;4.23;;;2.60;;
15120;SDS011;7661;48.904;9.414;2022-09-03T09:33:15;5.13;;;2.53;;
15120;SDS011;7661;48.904;9.414;2022-09-03T09:35:42;4.17;;;2.50;;
15120;SDS011;7661;48.904;9.414;2022-09-03T09:38:10;5.50;;;2.67;;
15120;SDS011;7661;48.904;9.414;2022-09-03T09:40:39;4.53;;;2.50;;
15120;SDS011;7661;48.904;9.414;2022-09-03T09:43:11;6.23;;;3.10;;
15120;SDS011;7661;48.904;9.414;2022-09-03T09:45:41;5.60;;;2.43;;
15120;SDS011;7661;48.904;9.414;2022-09-03T09:48:14;9.33;;;3.23;;
15120;SDS011;7661;48.904;9.414;2022-09-03T09:50:47;4.70;;;2.57;;
15120;SDS011;7661;48.904;9.414;2022-09-03T09:53:15;5.60;;;2.53;;
15120;SDS011;7661;48.904;9.414;2022-09-03T09:55:49;7.80;;;2.30;;
15120;SDS011;7661;48.904;9.414;2022-09-03T09:58:18;4.77;;;3.10;;
15120;SDS011;7661;48.904;9.414;2022-09-03T10:00:54;7.43;;;2.57;;
15120;SDS011;7661;48.904;9.414;2022-09-03T10:03:23;5.73;;;2.30;;
15120;SDS011;7661;48.904;9.414;2022-09-03T10:06:00;6.23;;;2.60;;
15120;SDS011;7661;48.904;9.414;2022-09-03T10:08:49;10.13;;;2.77;;
15120;SDS011;7661;48.904;9.414;2022-09-03T10:11:17;5.77;;;2.60;;
15120;SDS011;7661;48.904;9.414;2022-09-03T10:13:49;6.90;;;2.33;;
15120;SDS011;7661;48.904;9.414;2022-09-03T10:16:19;5.60;;;2.53;;
15120;SDS011;7661;48.904;9.414;2022-09-03T10:18:53;6.83;;;2.50;;
15120;SDS011;7661;48.904;9.414;2022-09-03T10:21:29;9.20;;;2.10;;
15120;SDS011;7661;48.904;9.414;2022-09-03T10:24:03;6.90;;;2.70;;
15120;SDS011;7661;48.904;9.414;2022-09-03T10:26:42;4.70;;;2.53;;
15120;SDS011;7661;48.904;9.414;2022-09-03T10:29:11;9.90;;;2.53;;
15120;SDS011;7661;48.904;9.414;2022-09-03T10:31:44;7.13;;;2.20;;
15120;SDS011;7661;48.904;9.414;2022-09-03T10:34:31;9.80;;;3.40;;
15120;SDS011;7661;48.904;9.414;2022-09-03T10:37:07;7.27;;;3.17;;
15120;SDS011;7661;48.904;9.414;2022-09-03T10:39:48;3.53;;;2.30;;
15120;SDS011;7661;48.904;9.414;2022-09-03T10:42:31;4.37;;;2.57;;
15120;SDS011;7661;48.904;9.414;2022-09-03T10:45:07;5.90;;;2.10;;
15120;SDS011;7661;48.904;9.414;2022-09-03T10:47:50;4.57;;;2.23;;
15120;SDS011;7661;48.904;9.414;2022-09-03T10:50:45;4.03;;;2.23;;
15120;SDS011;7661;48.904;9.414;2022-09-03T10:53:19;3.37;;;2.10;;
15120;SDS011;7661;48.904;9.414;2022-09-03T10:56:04;3.30;;;1.80;;
15120;SDS011;7661;48.904;9.414;2022-09-03T10:58:45;5.43;;;2.30;;
15120;SDS011;7661;48.904;9.414;2022-09-03T11:01:23;6.90;;;2.20;;
15120;SDS011;7661;48.904;9.414;2022-09-03T11:04:01;6.20;;;2.10;;
15120;SDS011;7661;48.904;9.414;2022-09-03T11:06:51;4.20;;;2.17;;
15120;SDS011;7661;48.904;9.414;2022-09-03T11:09:23;6.40;;;2.67;;
15120;SDS011;7661;48.904;9.414;2022-09-03T11:11:56;7.70;;;2.30;;
15120;SDS011;7661;48.904;9.414;2022-09-03T11:14:30;8.50;;;2.70;;
15120;SDS011;7661;48.904;9.414;2022-09-03T11:17:03;5.17;;;2.50;;
15120;SDS011;7661;48.904;9.414;2022-09-03T11:19:35;5.00;;;2.43;;
15120;SDS011;7661;48.904;9.414;2022-09-03T11:22:11;11.20;;;2.43;;
15120;SDS011;7661;48.904;9.414;2022-09-03T11:24:41;7.63;;;2.17;;
15120;SDS011;7661;48.904;9.414;2022-09-03T11:27:15;4.93;;;2.30;;
15120;SDS011;7661;48.904;9.414;2022-09-03T11:29:51;7.13;;;2.43;;
15120;SDS011;7661;48.904;9.414;2022-09-03T11:32:23;5.10;;;2.50;;
15120;SDS011;7661;48.904;9.414;2022-09-03T11:35:12;6.70;;;2.17;;
15120;SDS011;7661;48.904;9.414;2022-09-03T11:37:46;4.27;;;2.20;;
15120;SDS011;7661;48.904;9.414;2022-09-03T11:40:18;5.10;;;2.33;;
15120;SDS011;7661;48.904;9.414;2022-09-03T11:42:46;13.47;;;3.43;;
15120;SDS011;7661;48.904;9.414;2022-09-03T11:45:19;4.90;;;2.17;;
15120;SDS011;7661;48.904;9.414;2022-09-03T11:47:58;4.83;;;2.67;;
15120;SDS011;7661;48.904;9.414;2022-09-03T11:50:26;4.70;;;2.43;;
15120;SDS011;7661;48.904;9.414;2022-09-03T11:53:06;4.17;;;2.17;;
15120;SDS011;7661;48.904;9.414;2022-09-03T11:55:46;5.03;;;2.27;;
15120;SDS011;7661;48.904;9.414;2022-09-03T11:58:20;6.93;;;2.20;;
15120;SDS011;7661;48.904;9.414;2022-09-03T12:00:51;9.23;;;2.57;;
15120;SDS011;7661;48.904;9.414;2022-09-03T12:03:21;6.10;;;2.43;;
15120;SDS011;7661;48.904;9.414;2022-09-03T12:05:57;5.23;;;2.50;;
15120;SDS011;7661;48.904;9.414;2022-09-03T12:08:43;16.07;;;3.33;;
15120;SDS011;7661;48.904;9.414;2022-09-03T12:11:34;4.70;;;2.37;;
15120;SDS011;7661;48.904;9.414;2022-09-03T12:14:11;4.23;;;2.20;;
15120;SDS011;7661;48.904;9.414;2022-09-03T12:16:48;11.90;;;2.93;;
15120;SDS011;7661;48.904;9.414;2022-09-03T12:19:34;6.80;;;2.60;;
15120;SDS011;7661;48.904;9.414;2022-09-03T12:22:06;6.20;;;2.60;;
15120;SDS011;7661;48.904;9.414;2022-09-03T12:24:41;6.93;;;2.80;;
15120;SDS011;7661;48.904;9.414;2022-09-03T12:27:09;11.67;;;2.50;;
15120;SDS011;7661;48.904;9.414;2022-09-03T12:29:48;4.20;;;2.60;;
15120;SDS011;7661;48.904;9.414;2022-09-03T12:32:24;4.60;;;2.60;;
15120;SDS011;7661;48.904;9.414;2022-09-03T12:34:52;8.23;;;2.80;;
15120;SDS011;7661;48.904;9.414;2022-09-03T12:37:20;7.73;;;2.83;;
15120;SDS011;7661;48.904;9.414;2022-09-03T12:39:51;10.90;;;3.73;;
15120;SDS011;7661;48.904;9.414;2022-09-03T12:42:21;4.93;;;2.77;;
15120;SDS011;7661;48.904;9.414;2022-09-03T12:44:50;6.00;;;3.27;;
15120;SDS011;7661;48.904;9.414;2022-09-03T12:47:18;7.30;;;2.60;;
15120;SDS011;7661;48.904;9.414;2022-09-03T12:49:47;7.00;;;3.10;;
15120;SDS011;7661;48.904;9.414;2022-09-03T12:52:16;8.53;;;2.90;;
15120;SDS011;7661;48.904;9.414;2022-09-03T12:54:48;9.53;;;3.43;;
15120;SDS011;7661;48.904;9.414;2022-09-03T12:57:21;5.43;;;3.20;;
15120;SDS011;7661;48.904;9.414;2022-09-03T12:59:53;5.70;;;3.20;;
15120;SDS011;7661;48.904;9.414;2022-09-03T13:02:23;5.60;;;3.10;;
15120;SDS011;7661;48.904;9.414;2022-09-03T13:04:53;4.90;;;2.57;;
15120;SDS011;7661;48.904;9.414;2022-09-03T13:07:23;4.30;;;2.47;;
15120;SDS011;7661;48.904;9.414;2022-09-03T13:10:00;8.50;;;1.90;;
15120;SDS011;7661;48.904;9.414;2022-09-03T13:12:31;4.07;;;2.23;;
15120;SDS011;7661;48.904;9.414;2022-09-03T13:15:09;4.40;;;1.90;;
15120;SDS011;7661;48.904;9.414;2022-09-03T13:18:03;5.20;;;1.80;;
15120;SDS011;7661;48.904;9.414;2022-09-03T13:20:44;4.43;;;1.70;;
15120;SDS011;7661;48.904;9.414;2022-09-03T13:23:28;2.90;;;1.20;;
15120;SDS011;7661;48.904;9.414;2022-09-03T13:26:11;4.00;;;1.00;;
15120;SDS011;7661;48.904;9.414;2022-09-03T13:28:50;4.20;;;1.23;;
15120;SDS011;7661;48.904;9.414;2022-09-03T13:31:33;11.50;;;1.67;;
15120;SDS011;7661;48.904;9.414;2022-09-03T13:34:04;2.40;;;1.27;;
15120;SDS011;7661;48.904;9.414;2022-09-03T13:36:36;5.30;;;1.80;;
15120;SDS011;7661;48.904;9.414;2022-09-03T13:39:19;4.40;;;1.70;;
15120;SDS011;7661;48.904;9.414;2022-09-03T13:41:53;3.40;;;1.50;;
15120;SDS011;7661;48.904;9.414;2022-09-03T13:44:28;5.27;;;2.00;;
15120;SDS011;7661;48.904;9.414;2022-09-03T13:47:04;5.70;;;1.97;;
15120;SDS011;7661;48.904;9.414;2022-09-03T13:49:35;4.00;;;1.57;;
15120;SDS011;7661;48.904;9.414;2022-09-03T13:52:25;5.80;;;1.90;;
15120;SDS011;7661;48.904;9.414;2022-09-03T13:55:08;5.83;;;1.70;;
15120;SDS011;7661;48.904;9.414;2022-09-03T13:57:44;5.97;;;2.10;;
15120;SDS011;7661;48.904;9.414;2022-09-03T14:00:21;6.33;;;2.07;;
15120;SDS011;7661;48.904;9.414;2022-09-03T14:02:50;4.80;;;2.10;;
15120;SDS011;7661;48.904;9.414;2022-09-03T14:05:30;3.03;;;1.83;;
15120;SDS011;7661;48.904;9.414;2022-09-03T14:08:08;7.60;;;1.70;;
15120;SDS011;7661;48.904;9.414;2022-09-03T14:10:49;2.50;;;1.47;;
15120;SDS011;7661;48.904;9.414;2022-09-03T14:13:27;3.37;;;1.60;;
15120;SDS011;7661;48.904;9.414;2022-09-03T14:16:03;3.30;;;1.40;;
15120;SDS011;7661;48.904;9.414;2022-09-03T14:18:41;6.07;;;1.50;;
15120;SDS011;7661;48.904;9.414;2022-09-03T14:21:15;3.53;;;1.57;;
15120;SDS011;7661;48.904;9.414;2022-09-03T14:23:46;3.83;;;1.57;;
15120;SDS011;7661;48.904;9.414;2022-09-03T14:26:20;2.60;;;1.27;;
15120;SDS011;7661;48.904;9.414;2022-09-03T14:28:58;2.93;;;1.37;;
15120;SDS011;7661;48.904;9.414;2022-09-03T14:31:32;4.13;;;1.70;;
15120;SDS011;7661;48.904;9.414;2022-09-03T14:34:17;4.23;;;1.77;;
15120;SDS011;7661;48.904;9.414;2022-09-03T14:36:52;3.93;;;1.53;;
15120;SDS011;7661;48.904;9.414;2022-09-03T14:39:27;3.50;;;1.30;;
15120;SDS011;7661;48.904;9.414;2022-09-03T14:42:07;8.00;;;2.63;;
15120;SDS011;7661;48.904;9.414;2022-09-03T14:44:55;2.87;;;1.30;;
15120;SDS011;7661;48.904;9.414;2022-09-03T14:47:39;4.50;;;1.50;;
15120;SDS011;7661;48.904;9.414;2022-09-03T14:50:26;6.07;;;1.77;;
15120;SDS011;7661;48.904;9.414;2022-09-03T14:53:12;4.63;;;1.73;;
15120;SDS011;7661;48.904;9.414;2022-09-03T14:56:13;2.70;;;1.37;;
15120;SDS011;7661;48.904;9.414;2022-09-03T14:59:00;3.60;;;1.20;;
15120;SDS011;7661;48.904;9.414;2022-09-03T15:01:40;2.80;;;1.50;;
15120;SDS011;7661;48.904;9.414;2022-09-03T15:04:26;3.80;;;2.00;;
15120;SDS011;7661;48.904;9.414;2022-09-03T15:07:15;4.33;;;1.87;;
15120;SDS011;7661;48.904;9.414;2022-09-03T15:09:53;6.07;;;1.43;;
15120;SDS011;7661;48.904;9.414;2022-09-03T15:12:29;5.30;;;1.60;;
15120;SDS011;7661;48.904;9.414;2022-09-03T15:15:04;2.60;;;1.30;;
15120;SDS011;7661;48.904;9.414;2022-09-03T15:17:49;2.77;;;1.30;;
15120;SDS011;7661;48.904;9.414;2022-09-03T15:20:30;3.43;;;1.70;;
15120;SDS011;7661;48.904;9.414;2022-09-03T15:23:18;7.67;;;1.40;;
15120;SDS011;7661;48.904;9.414;2022-09-03T15:29:01;3.73;;;1.37;;
15120;SDS011;7661;48.904;9.414;2022-09-03T15:31:44;3.87;;;1.70;;
15120;SDS011;7661;48.904;9.414;2022-09-03T15:34:23;4.50;;;1.73;;
15120;SDS011;7661;48.904;9.414;2022-09-03T15:37:01;5.40;;;2.20;;
15120;SDS011;7661;48.904;9.414;2022-09-03T15:39:37;4.70;;;2.20;;